createdAt,value
2022-08-26T00:02:13.985Z,16.80
2022-08-26T00:04:43.912Z,16.80
2022-08-26T00:07:12.530Z,16.80
2022-08-26T00:09:40.841Z,16.80
2022-08-26T00:12:12.446Z,16.80
2022-08-26T00:14:41.932Z,16.70
2022-08-26T00:17:10.548Z,16.80
2022-08-26T00:19:40.303Z,16.70
2022-08-26T00:22:08.601Z,16.70
2022-08-26T00:24:36.956Z,16.70
2022-08-26T00:27:06.497Z,16.70
2022-08-26T00:29:37.355Z,16.60
2022-08-26T00:32:07.245Z,16.60
2022-08-26T00:34:37.541Z,16.60
2022-08-26T00:37:08.969Z,16.60
2022-08-26T00:39:38.690Z,16.50
2022-08-26T00:42:07.194Z,16.50
2022-08-26T00:44:35.498Z,16.50
2022-08-26T00:47:06.893Z,16.50
2022-08-26T00:49:39.545Z,16.40
2022-08-26T00:52:14.605Z,16.40
2022-08-26T00:54:47.697Z,16.40
2022-08-26T00:57:19.273Z,16.40
2022-08-26T00:59:52.037Z,16.40
2022-08-26T01:02:21.339Z,16.40
2022-08-26T01:04:55.656Z,16.30
2022-08-26T01:07:27.633Z,16.30
2022-08-26T01:09:59.834Z,16.30
2022-08-26T01:12:32.425Z,16.30
2022-08-26T01:15:02.107Z,16.30
2022-08-26T01:17:30.456Z,16.20
2022-08-26T01:20:05.683Z,16.20
2022-08-26T01:22:45.471Z,16.20
2022-08-26T01:25:14.745Z,16.20
2022-08-26T01:27:43.945Z,16.10
2022-08-26T01:30:14.537Z,16.10
2022-08-26T01:32:43.989Z,16.10
2022-08-26T01:35:12.472Z,16.00
2022-08-26T01:37:42.678Z,16.00
2022-08-26T01:40:17.577Z,16.00
2022-08-26T01:42:46.968Z,16.00
2022-08-26T01:45:20.750Z,16.00
2022-08-26T01:47:56.990Z,15.90
2022-08-26T01:50:30.626Z,15.90
2022-08-26T01:53:05.777Z,15.90
2022-08-26T01:55:35.412Z,15.90
2022-08-26T01:58:08.866Z,15.90
2022-08-26T02:00:39.189Z,15.80
2022-08-26T02:03:18.235Z,15.90
2022-08-26T02:05:51.314Z,15.80
2022-08-26T02:08:24.928Z,15.80
2022-08-26T02:10:54.797Z,15.80
2022-08-26T02:13:25.544Z,15.70
2022-08-26T02:15:55.340Z,15.70
2022-08-26T02:18:25.117Z,15.70
2022-08-26T02:20:55.291Z,15.60
2022-08-26T02:23:25.577Z,15.60
2022-08-26T02:25:58.859Z,15.60
2022-08-26T02:28:33.360Z,15.60
2022-08-26T02:31:01.784Z,15.60
2022-08-26T02:33:31.816Z,15.50
2022-08-26T02:36:00.247Z,15.50
2022-08-26T02:38:30.225Z,15.50
2022-08-26T02:40:59.052Z,15.50
2022-08-26T02:43:31.484Z,15.50
2022-08-26T02:46:02.354Z,15.40
2022-08-26T02:48:31.249Z,15.40
2022-08-26T02:51:01.737Z,15.40
2022-08-26T02:53:35.541Z,15.40
2022-08-26T02:56:05.109Z,15.40
2022-08-26T02:58:33.513Z,15.40
2022-08-26T03:01:04.921Z,15.30
2022-08-26T03:03:34.148Z,15.30
2022-08-26T03:06:02.546Z,15.30
2022-08-26T03:08:32.201Z,15.30
2022-08-26T03:11:01.683Z,15.30
2022-08-26T03:13:30.282Z,15.20
2022-08-26T03:16:01.503Z,15.20
2022-08-26T03:18:29.916Z,15.20
2022-08-26T03:20:58.641Z,15.10
2022-08-26T03:23:26.920Z,15.10
2022-08-26T03:25:56.769Z,15.10
2022-08-26T03:28:27.143Z,15.10
2022-08-26T03:30:54.923Z,15.10
2022-08-26T03:33:23.245Z,15.00
2022-08-26T03:35:52.289Z,15.00
2022-08-26T03:38:21.469Z,15.00
2022-08-26T03:40:50.492Z,15.00
2022-08-26T03:43:21.434Z,14.90
2022-08-26T03:45:50.008Z,14.90
2022-08-26T03:48:19.577Z,14.90
2022-08-26T03:50:48.822Z,14.90
2022-08-26T03:53:20.556Z,14.90
2022-08-26T03:55:49.306Z,14.90
2022-08-26T03:58:24.145Z,14.80
2022-08-26T04:00:55.637Z,14.80
2022-08-26T04:03:38.370Z,14.80
2022-08-26T04:06:07.503Z,14.80
2022-08-26T04:08:36.162Z,14.70
2022-08-26T04:11:04.854Z,14.70
2022-08-26T04:13:34.630Z,14.70
2022-08-26T04:16:02.980Z,14.70
2022-08-26T04:18:37.228Z,14.60
2022-08-26T04:21:09.329Z,14.60
2022-08-26T04:23:47.742Z,14.60
2022-08-26T04:26:17.160Z,14.60
2022-08-26T04:28:46.834Z,14.50
2022-08-26T04:31:18.208Z,14.50
2022-08-26T04:33:49.886Z,14.50
2022-08-26T04:36:20.204Z,14.50
2022-08-26T04:38:50.678Z,14.50
2022-08-26T04:41:20.553Z,14.50
2022-08-26T04:43:50.334Z,14.40
2022-08-26T04:46:22.746Z,14.40
2022-08-26T04:48:52.335Z,14.40
2022-08-26T04:51:27.249Z,14.40
2022-08-26T04:53:57.217Z,14.40
2022-08-26T04:56:26.351Z,14.40
2022-08-26T04:58:56.515Z,14.30
2022-08-26T05:01:25.385Z,14.30
2022-08-26T05:03:54.769Z,14.30
2022-08-26T05:06:23.228Z,14.30
2022-08-26T05:08:51.690Z,14.30
2022-08-26T05:11:22.094Z,14.20
2022-08-26T05:13:50.889Z,14.30
2022-08-26T05:16:20.620Z,14.30
2022-08-26T05:18:49.029Z,14.30
2022-08-26T05:21:20.063Z,14.20
2022-08-26T05:23:51.216Z,14.20
2022-08-26T05:26:23.323Z,14.20
2022-08-26T05:28:54.718Z,14.20
2022-08-26T05:31:27.769Z,14.20
2022-08-26T05:33:57.535Z,14.20
2022-08-26T05:36:28.537Z,14.20
2022-08-26T05:38:57.767Z,14.20
2022-08-26T05:41:34.355Z,14.20
2022-08-26T05:44:08.487Z,14.20
2022-08-26T06:26:57.498Z,14.50
2022-08-26T06:30:27.141Z,14.60
2022-08-26T06:35:56.937Z,14.70
2022-08-26T06:38:40.137Z,14.80
2022-08-26T06:41:29.171Z,14.90
2022-08-26T06:44:44.757Z,15.00
2022-08-26T06:47:17.773Z,15.30
2022-08-26T06:49:46.438Z,15.50
2022-08-26T06:52:19.954Z,15.70
2022-08-26T06:54:59.409Z,16.00
2022-08-26T06:57:29.317Z,16.30
2022-08-26T07:00:00.776Z,16.50
2022-08-26T07:02:59.173Z,16.70
2022-08-26T07:05:30.035Z,17.00
2022-08-26T07:07:58.683Z,17.20
2022-08-26T07:10:28.103Z,17.40
2022-08-26T07:12:56.868Z,17.60
2022-08-26T07:15:31.017Z,17.70
2022-08-26T07:18:01.629Z,17.80
2022-08-26T07:20:30.362Z,18.00
2022-08-26T07:22:59.470Z,18.20
2022-08-26T07:25:28.072Z,18.40
2022-08-26T07:28:48.703Z,18.70
2022-08-26T07:31:18.344Z,19.00
2022-08-26T07:33:48.791Z,19.20
2022-08-26T07:36:18.743Z,19.40
2022-08-26T07:38:48.163Z,19.70
2022-08-26T07:41:20.169Z,19.80
2022-08-26T07:43:49.041Z,20.00
2022-08-26T07:46:20.765Z,20.20
2022-08-26T07:49:00.657Z,20.40
2022-08-26T07:51:29.417Z,20.80
2022-08-26T07:53:58.728Z,21.10
2022-08-26T07:56:30.043Z,21.50
2022-08-26T07:59:01.989Z,22.00
2022-08-26T08:01:33.453Z,22.50
2022-08-26T08:04:07.575Z,22.70
2022-08-26T10:16:47.430Z,31.70
2022-08-26T10:19:21.075Z,31.80
2022-08-26T10:21:54.090Z,31.60
2022-08-26T10:24:27.116Z,31.80
2022-08-26T10:27:03.647Z,31.80
2022-08-26T10:29:38.849Z,31.50
2022-08-26T10:32:15.429Z,31.20
2022-08-26T10:34:45.062Z,30.70
2022-08-26T10:37:19.327Z,30.10
2022-08-26T10:39:57.178Z,30.50
2022-08-26T10:42:33.599Z,31.00
2022-08-26T10:45:07.653Z,31.90
2022-08-26T14:26:39.748Z,25.60
2022-08-26T14:30:03.833Z,25.60
2022-08-26T14:32:34.173Z,25.60
2022-08-26T14:35:03.569Z,25.50
2022-08-26T14:37:32.925Z,25.40
2022-08-26T14:40:01.860Z,25.30
2022-08-26T16:56:57.902Z,22.90
2022-08-26T16:59:26.714Z,22.80
2022-08-26T17:01:56.161Z,22.70
2022-08-26T17:04:46.206Z,22.60
2022-08-26T17:07:40.432Z,22.50
2022-08-26T17:10:09.963Z,22.30
2022-08-26T17:13:06.436Z,22.20
2022-08-26T17:15:35.238Z,22.10
2022-08-26T17:18:04.271Z,22.10
2022-08-26T17:20:33.654Z,22.10
2022-08-26T17:23:21.378Z,22.00
2022-08-26T17:25:50.456Z,22.00
2022-08-26T17:28:20.916Z,21.90
2022-08-26T17:30:50.162Z,21.90
2022-08-26T17:33:39.521Z,21.80
2022-08-26T17:36:15.807Z,21.70
2022-08-26T17:38:50.180Z,21.60
2022-08-26T17:41:26.329Z,21.50
2022-08-26T17:43:57.187Z,21.40
2022-08-26T17:46:38.206Z,21.40
2022-08-26T17:49:08.596Z,21.30
2022-08-26T17:51:49.081Z,21.20
2022-08-26T17:54:27.777Z,21.10
2022-08-26T18:04:05.952Z,21.00
2022-08-26T18:06:35.166Z,20.90
2022-08-26T18:09:04.346Z,20.90
2022-08-26T18:11:34.722Z,20.90
2022-08-26T18:14:08.851Z,20.80
2022-08-26T18:16:38.511Z,20.80
2022-08-26T18:19:09.428Z,20.70
2022-08-26T18:21:38.678Z,20.60
2022-08-26T18:24:12.110Z,20.50
2022-08-26T18:26:48.033Z,20.40
2022-08-26T18:29:18.297Z,20.30
2022-08-26T18:31:47.124Z,20.20
2022-08-26T18:34:17.161Z,20.20
2022-08-26T18:36:45.733Z,20.10
2022-08-26T18:39:15.459Z,20.00
2022-08-26T18:41:47.944Z,20.00
2022-08-26T18:44:19.040Z,19.90
2022-08-26T18:46:48.297Z,19.90
2022-08-26T18:49:20.194Z,19.80
2022-08-26T18:51:51.057Z,19.80
2022-08-26T18:56:48.873Z,19.60
2022-08-26T18:59:17.459Z,19.60
2022-08-26T19:01:46.771Z,19.50
2022-08-26T19:04:22.051Z,19.40
2022-08-26T19:06:52.079Z,19.30
2022-08-26T19:09:22.929Z,19.30
2022-08-26T19:14:40.955Z,19.20
2022-08-26T19:17:31.660Z,19.10
2022-08-26T19:20:19.696Z,19.20
2022-08-26T19:23:10.610Z,19.20
2022-08-26T19:26:47.745Z,19.10
2022-08-26T20:00:39.094Z,18.70
2022-08-26T20:08:30.871Z,18.60
2022-08-26T20:11:42.289Z,18.60
2022-08-26T20:14:35.735Z,18.50
2022-08-26T20:18:05.657Z,18.50
2022-08-26T20:25:37.431Z,18.40
2022-08-26T20:28:51.001Z,18.30
2022-08-26T20:31:57.371Z,18.20
2022-08-26T20:38:55.846Z,18.10
2022-08-26T20:42:00.669Z,18.10
2022-08-26T20:44:54.727Z,18.00
2022-08-26T20:47:29.188Z,18.00
2022-08-26T20:49:58.499Z,17.90
2022-08-26T20:52:28.701Z,17.90
2022-08-26T20:54:57.411Z,17.90
2022-08-26T20:57:26.064Z,17.80
2022-08-26T20:59:55.011Z,17.80
2022-08-26T21:02:26.406Z,17.80
2022-08-26T21:04:59.284Z,17.80
2022-08-26T21:07:33.040Z,17.70
2022-08-26T21:10:21.650Z,17.70
2022-08-26T21:12:56.553Z,17.70
2022-08-26T21:15:36.298Z,17.70
2022-08-26T21:18:15.404Z,17.70
2022-08-26T21:20:52.988Z,17.70
2022-08-26T21:23:30.421Z,17.70
2022-08-26T21:26:20.034Z,17.60
2022-08-26T21:29:42.306Z,17.60
2022-08-26T21:32:16.582Z,17.60
2022-08-26T21:34:44.917Z,17.60
2022-08-26T21:37:17.011Z,17.50
2022-08-26T21:39:47.127Z,17.50
2022-08-26T21:42:15.445Z,17.50
2022-08-26T21:44:44.713Z,17.50
2022-08-26T21:47:17.297Z,17.50
2022-08-26T21:49:45.874Z,17.40
2022-08-26T21:52:14.211Z,17.40
2022-08-26T21:54:42.499Z,17.40
2022-08-26T21:57:19.414Z,17.30
2022-08-26T21:59:47.848Z,17.30
2022-08-26T22:02:16.184Z,17.30
2022-08-26T22:04:48.529Z,17.20
2022-08-26T22:07:19.093Z,17.20
2022-08-26T22:09:47.457Z,17.20
2022-08-26T22:12:18.274Z,17.20
2022-08-26T22:14:48.458Z,17.20
2022-08-26T22:17:16.966Z,17.20
2022-08-26T22:19:46.187Z,17.10
2022-08-26T22:22:15.588Z,17.10
2022-08-26T22:24:44.312Z,17.00
2022-08-26T22:27:14.053Z,17.00
2022-08-26T22:29:42.822Z,16.90
2022-08-26T22:32:12.633Z,16.80
2022-08-26T22:34:41.864Z,16.90
2022-08-26T22:37:10.261Z,16.80
2022-08-26T22:39:39.136Z,16.80
2022-08-26T22:42:07.605Z,16.80
2022-08-26T22:44:36.992Z,16.70
2022-08-26T22:47:05.452Z,16.80
2022-08-26T22:49:35.113Z,16.80
2022-08-26T22:52:03.848Z,16.80
2022-08-26T22:54:32.353Z,16.70
2022-08-26T22:57:00.680Z,16.70
2022-08-26T22:59:29.010Z,16.70
2022-08-26T23:01:57.326Z,16.60
2022-08-26T23:04:25.861Z,16.60
2022-08-26T23:06:55.606Z,16.60
2022-08-26T23:09:23.958Z,16.60
2022-08-26T23:11:53.373Z,16.50
2022-08-26T23:14:21.648Z,16.50
2022-08-26T23:16:50.529Z,16.50
2022-08-26T23:19:21.337Z,16.40
2022-08-26T23:21:49.718Z,16.40
2022-08-26T23:24:19.574Z,16.40
2022-08-26T23:26:47.881Z,16.40
2022-08-26T23:29:16.333Z,16.40
2022-08-26T23:31:44.999Z,16.40
2022-08-26T23:34:29.931Z,16.40
2022-08-26T23:36:58.940Z,16.40
2022-08-26T23:39:28.687Z,16.40
2022-08-26T23:41:57.403Z,16.40
2022-08-26T23:44:26.664Z,16.40
2022-08-26T23:46:55.298Z,16.40
2022-08-26T23:49:24.429Z,16.40
2022-08-26T23:52:10.873Z,16.40
2022-08-26T23:54:41.424Z,16.40
2022-08-26T23:57:10.908Z,16.30
2022-08-26T23:59:39.791Z,16.30
